Terminal Aerodrome Forecast
Issued by NWS

Home | Current Version | Previous Version | Text Only | Print | Product List | Glossary On
Versions: 1 2 3 4 5 6 7 8 9 10 11 12 13 14 15 16 17 18 19 20 21 22 23 24 25 26 27 28 29 30 31 32 33 34 35 36 37 38 39 40 41 42 43 44 45 46
000
FTUS46 KOTX 222341
TAFCOE
TAF
KCOE 222341Z 2300/2324 15005KT P6SM SCT050 OVC070
     FM230800 16008KT P6SM -SHRA BKN025 OVC040
     FM231000 20008KT P6SM VCSH SCT008 BKN015 OVC040 WS020/23040KT
     FM231800 21016KT P6SM -RA SCT015 OVC020
     FM232200 23020G35KT P6SM VCSH BKN020 BKN060=

USA.gov is the U.S. government's official web portal to all federal, state and local government web resources and services.